Time;durP1;ratioP1;P1;durP2;ratioP2;P2;SDS_P1;SDS_P2;PMS_P1;PMS_P2;Temp;Humidity;BMP_temperature;BMP_pressure;BME280_temperature;BME280_humidity;BME280_pressure;Samples;Min_cycle;Max_cycle;Signal;HPM_P1;HPM_P2
2022/04/13 00:00:35;;;;;;;31.77;14.17;;;;;;;;;;5033431;28;20445;-63
2022/04/13 00:03:02;;;;;;;30.93;14.60;;;;;;;;;;5046969;28;20532;-64
2022/04/13 00:05:30;;;;;;;26.90;13.70;;;;;;;;;;5047195;28;20429;-64
2022/04/13 00:07:56;;;;;;;29.50;14.90;;;;;;;;;;5034348;28;20499;-64
2022/04/13 00:10:23;;;;;;;31.23;13.93;;;;;;;;;;5028512;28;20537;-64
2022/04/13 00:12:50;;;;;;;41.70;19.63;;;;;;;;;;5029084;28;20470;-64
2022/04/13 00:15:17;;;;;;;30.13;15.10;;;;;;;;;;5042304;28;20468;-63
2022/04/13 00:17:43;;;;;;;38.83;18.20;;;;;;;;;;5031933;28;20500;-64
2022/04/13 00:20:10;;;;;;;38.27;18.73;;;;;;;;;;5030307;28;20449;-64
2022/04/13 00:22:54;;;;;;;32.30;17.57;;;;;;;;;;5030258;28;20545;-63
2022/04/13 00:25:23;;;;;;;31.37;16.00;;;;;;;;;;5041288;28;20899;-63
2022/04/13 00:28:09;;;;;;;31.00;14.93;;;;;;;;;;5030553;28;20840;-64
2022/04/13 00:30:36;;;;;;;36.80;16.70;;;;;;;;;;5047309;28;20433;-64
2022/04/13 00:33:03;;;;;;;31.50;16.53;;;;;;;;;;5048383;28;20995;-63
2022/04/13 00:35:30;;;;;;;34.93;16.87;;;;;;;;;;5048560;28;20440;-63
2022/04/13 00:37:57;;;;;;;34.87;17.80;;;;;;;;;;5048392;28;20417;-64
2022/04/13 00:40:24;;;;;;;32.07;15.80;;;;;;;;;;5035837;28;20461;-63
2022/04/13 00:42:51;;;;;;;26.77;14.57;;;;;;;;;;5028785;28;20442;-64
2022/04/13 00:45:18;;;;;;;30.80;15.40;;;;;;;;;;5033228;28;20446;-64
2022/04/13 00:47:44;;;;;;;39.00;18.80;;;;;;;;;;5044668;28;20831;-63
2022/04/13 00:50:11;;;;;;;31.43;16.63;;;;;;;;;;5048229;28;20455;-63
2022/04/13 00:52:38;;;;;;;34.20;17.47;;;;;;;;;;5030429;28;20481;-63
2022/04/13 00:55:24;;;;;;;31.97;15.33;;;;;;;;;;5028412;28;20426;-64
2022/04/13 00:57:51;;;;;;;32.47;15.63;;;;;;;;;;5028812;28;20434;-64
2022/04/13 01:00:39;;;;;;;24.63;13.27;;;;;;;;;;5032571;28;20453;-64
2022/04/13 01:03:07;;;;;;;27.30;13.70;;;;;;;;;;5042318;28;20446;-63
2022/04/13 01:05:52;;;;;;;26.60;14.90;;;;;;;;;;5027204;28;20418;-64
2022/04/13 01:08:19;;;;;;;27.87;14.53;;;;;;;;;;5037958;28;20448;-63
2022/04/13 01:11:03;;;;;;;26.90;14.33;;;;;;;;;;5046167;28;20441;-63
2022/04/13 01:13:30;;;;;;;23.57;13.77;;;;;;;;;;5046828;28;20429;-63
2022/04/13 01:15:57;;;;;;;28.77;14.03;;;;;;;;;;5048287;28;20462;-63
2022/04/13 01:18:23;;;;;;;28.10;13.47;;;;;;;;;;5046990;28;20944;-64
2022/04/13 01:20:53;;;;;;;25.73;12.77;;;;;;;;;;5047173;28;20540;-63
2022/04/13 01:23:20;;;;;;;23.43;13.93;;;;;;;;;;5044509;28;20438;-63
2022/04/13 01:25:48;;;;;;;26.10;13.30;;;;;;;;;;5033649;28;20446;-63
2022/04/13 01:28:14;;;;;;;31.47;17.27;;;;;;;;;;5044357;28;20800;-63
2022/04/13 01:30:59;;;;;;;30.90;17.80;;;;;;;;;;5046215;28;20437;-63
2022/04/13 01:33:28;;;;;;;37.47;19.57;;;;;;;;;;5029889;28;21337;-63
2022/04/13 01:36:13;;;;;;;32.73;18.23;;;;;;;;;;5047478;28;20429;-64
2022/04/13 01:38:39;;;;;;;35.33;17.97;;;;;;;;;;5047567;28;20463;-63
2022/04/13 01:41:06;;;;;;;32.00;16.30;;;;;;;;;;5030668;28;20441;-64
2022/04/13 01:43:33;;;;;;;30.53;15.37;;;;;;;;;;5028406;28;20834;-63
2022/04/13 01:45:59;;;;;;;33.70;16.73;;;;;;;;;;5027204;28;20557;-63
2022/04/13 01:48:43;;;;;;;32.30;16.60;;;;;;;;;;5027790;28;20426;-63
2022/04/13 01:51:10;;;;;;;32.80;16.57;;;;;;;;;;5027500;28;20433;-63
2022/04/13 01:53:54;;;;;;;40.33;19.37;;;;;;;;;;5027345;28;20426;-63
2022/04/13 01:56:21;;;;;;;30.13;15.67;;;;;;;;;;5027608;28;20964;-63
2022/04/13 01:59:05;;;;;;;30.63;15.23;;;;;;;;;;5032402;28;21201;-63
2022/04/13 02:01:32;;;;;;;37.93;17.33;;;;;;;;;;5046808;28;20471;-64
2022/04/13 02:03:59;;;;;;;35.30;18.13;;;;;;;;;;5039181;28;20440;-64
2022/04/13 02:06:26;;;;;;;32.10;17.23;;;;;;;;;;5042818;28;20425;-63
2022/04/13 02:08:53;;;;;;;34.40;18.13;;;;;;;;;;5050804;28;20550;-64
2022/04/13 02:11:20;;;;;;;34.53;17.07;;;;;;;;;;5047950;28;20453;-63
2022/04/13 02:13:46;;;;;;;33.57;15.80;;;;;;;;;;5032367;28;20469;-63
2022/04/13 02:16:13;;;;;;;34.13;16.50;;;;;;;;;;5031793;28;20442;-63
2022/04/13 02:18:40;;;;;;;36.87;18.50;;;;;;;;;;5031127;28;20429;-63
2022/04/13 02:21:07;;;;;;;32.27;16.57;;;;;;;;;;5044652;28;20774;-63
2022/04/13 02:23:33;;;;;;;32.43;16.27;;;;;;;;;;5049433;28;20777;-64
2022/04/13 02:26:19;;;;;;;35.53;17.57;;;;;;;;;;5051199;28;20455;-63
2022/04/13 02:28:46;;;;;;;39.37;18.10;;;;;;;;;;5042986;28;20975;-63
2022/04/13 02:31:12;;;;;;;35.73;17.30;;;;;;;;;;5031628;28;20475;-63
2022/04/13 02:33:39;;;;;;;35.77;16.70;;;;;;;;;;5040168;28;20472;-63
2022/04/13 02:36:06;;;;;;;35.03;17.23;;;;;;;;;;5030984;28;20549;-63
2022/04/13 02:38:33;;;;;;;37.43;18.00;;;;;;;;;;5032315;28;20444;-64
2022/04/13 02:40:59;;;;;;;40.63;19.37;;;;;;;;;;5036995;28;20681;-63
2022/04/13 02:43:29;;;;;;;46.37;20.97;;;;;;;;;;5040983;28;20453;-64
2022/04/13 02:45:57;;;;;;;40.67;20.03;;;;;;;;;;5051170;28;20444;-64
2022/04/13 02:48:23;;;;;;;37.87;17.43;;;;;;;;;;5041896;28;20442;-64
2022/04/13 02:50:52;;;;;;;44.60;19.43;;;;;;;;;;5030572;28;20450;-63
2022/04/13 02:53:36;;;;;;;36.37;19.57;;;;;;;;;;5032081;28;20564;-63
2022/04/13 02:56:02;;;;;;;39.13;18.73;;;;;;;;;;5038229;28;20444;-63
2022/04/13 02:58:29;;;;;;;38.10;17.90;;;;;;;;;;5031802;28;20492;-64
2022/04/13 03:00:56;;;;;;;33.60;17.80;;;;;;;;;;5030127;28;20441;-63
2022/04/13 03:03:23;;;;;;;36.57;17.33;;;;;;;;;;5034859;28;20810;-63
2022/04/13 03:05:49;;;;;;;39.13;18.30;;;;;;;;;;5045434;28;20809;-64
2022/04/13 03:08:16;;;;;;;39.63;18.77;;;;;;;;;;5048678;28;20468;-63
2022/04/13 03:10:44;;;;;;;39.23;18.13;;;;;;;;;;5036158;28;20438;-64
2022/04/13 03:13:10;;;;;;;36.27;18.07;;;;;;;;;;5030978;28;20466;-64
2022/04/13 03:15:37;;;;;;;33.17;16.93;;;;;;;;;;5048401;28;20480;-64
2022/04/13 03:18:05;;;;;;;43.43;18.47;;;;;;;;;;5029964;28;20544;-65
2022/04/13 03:20:33;;;;;;;32.50;16.70;;;;;;;;;;5033481;28;20537;-66
2022/04/13 03:23:00;;;;;;;35.63;16.67;;;;;;;;;;5041592;28;20441;-65
2022/04/13 03:25:27;;;;;;;38.27;17.77;;;;;;;;;;5042009;28;20453;-65
2022/04/13 03:27:54;;;;;;;41.53;18.20;;;;;;;;;;5043976;28;20944;-64
2022/04/13 03:30:22;;;;;;;38.87;17.50;;;;;;;;;;5042181;28;20452;-65
2022/04/13 03:32:53;;;;;;;35.17;18.30;;;;;;;;;;5042593;28;21168;-67
2022/04/13 03:35:37;;;;;;;36.70;17.90;;;;;;;;;;5040084;28;20440;-65
2022/04/13 03:38:04;;;;;;;42.17;18.80;;;;;;;;;;5042389;28;20488;-66
2022/04/13 03:40:31;;;;;;;35.50;17.13;;;;;;;;;;5043086;28;20956;-65
2022/04/13 03:42:57;;;;;;;38.30;17.07;;;;;;;;;;5042954;28;20441;-64
2022/04/13 03:45:25;;;;;;;36.37;16.90;;;;;;;;;;5041518;28;20457;-64
2022/04/13 03:48:10;;;;;;;40.63;17.97;;;;;;;;;;5040856;28;20471;-64
2022/04/13 03:50:37;;;;;;;36.87;15.57;;;;;;;;;;5041788;28;20441;-64
2022/04/13 03:53:04;;;;;;;35.00;17.33;;;;;;;;;;5043049;28;20469;-63
2022/04/13 03:55:31;;;;;;;35.13;17.67;;;;;;;;;;5042639;28;20445;-64
2022/04/13 03:57:58;;;;;;;26.70;14.30;;;;;;;;;;5041265;28;20519;-63
2022/04/13 04:00:26;;;;;;;37.43;16.93;;;;;;;;;;5038934;28;20480;-66
2022/04/13 04:02:53;;;;;;;33.00;16.40;;;;;;;;;;5041507;28;20459;-64
2022/04/13 04:05:20;;;;;;;35.07;16.57;;;;;;;;;;5041674;28;20468;-64
2022/04/13 04:07:48;;;;;;;31.97;16.13;;;;;;;;;;5040836;28;20544;-65
2022/04/13 04:10:14;;;;;;;30.40;15.70;;;;;;;;;;5042262;28;20457;-67
2022/04/13 04:12:41;;;;;;;36.20;16.93;;;;;;;;;;5040115;28;20562;-66
2022/04/13 04:15:09;;;;;;;36.30;17.43;;;;;;;;;;5041960;28;20566;-67
2022/04/13 04:17:36;;;;;;;36.30;17.37;;;;;;;;;;5031715;28;20552;-65
2022/04/13 04:20:04;;;;;;;31.80;16.87;;;;;;;;;;5040447;28;20441;-64
2022/04/13 04:22:31;;;;;;;32.77;16.97;;;;;;;;;;5042059;28;20484;-65
2022/04/13 04:25:04;;;;;;;32.63;17.47;;;;;;;;;;5040226;28;20820;-63
2022/04/13 04:27:31;;;;;;;32.10;15.77;;;;;;;;;;5040661;28;20449;-65
2022/04/13 04:30:15;;;;;;;28.97;16.40;;;;;;;;;;5038750;28;20436;-67
2022/04/13 04:32:42;;;;;;;29.03;15.23;;;;;;;;;;5036686;28;20847;-67
2022/04/13 04:35:09;;;;;;;29.30;14.80;;;;;;;;;;5040790;28;20453;-65
2022/04/13 04:37:36;;;;;;;28.50;15.07;;;;;;;;;;5037038;28;20441;-64
2022/04/13 04:40:03;;;;;;;29.13;15.23;;;;;;;;;;5040225;28;20457;-65
2022/04/13 04:42:30;;;;;;;31.83;15.87;;;;;;;;;;5038735;28;20526;-66
2022/04/13 04:44:57;;;;;;;29.10;15.17;;;;;;;;;;5042066;28;20468;-66
2022/04/13 04:47:24;;;;;;;30.10;15.43;;;;;;;;;;5037292;28;20859;-66
2022/04/13 04:49:51;;;;;;;31.80;15.90;;;;;;;;;;5041730;28;20437;-66
2022/04/13 04:52:18;;;;;;;31.00;15.63;;;;;;;;;;5041903;28;20465;-66
2022/04/13 04:54:46;;;;;;;35.93;17.10;;;;;;;;;;5040613;28;20450;-66
2022/04/13 04:57:13;;;;;;;51.60;26.43;;;;;;;;;;5036949;28;20442;-66
2022/04/13 04:59:39;;;;;;;56.27;28.07;;;;;;;;;;5041670;28;20453;-66
2022/04/13 05:02:20;;;;;;;50.17;25.60;;;;;;;;;;5040052;28;21177;-64
2022/04/13 05:04:48;;;;;;;45.90;23.30;;;;;;;;;;5040293;28;20458;-65
2022/04/13 05:07:15;;;;;;;36.53;19.47;;;;;;;;;;5042555;28;20474;-65
2022/04/13 05:09:42;;;;;;;36.10;19.77;;;;;;;;;;5040463;28;20437;-66
2022/04/13 05:12:09;;;;;;;42.03;18.50;;;;;;;;;;5044667;28;20739;-65
2022/04/13 05:14:36;;;;;;;31.87;18.37;;;;;;;;;;5043731;28;20877;-66
2022/04/13 05:17:03;;;;;;;42.30;20.37;;;;;;;;;;5042720;28;20460;-67
2022/04/13 05:19:33;;;;;;;42.50;23.20;;;;;;;;;;5030902;28;20918;-66
2022/04/13 05:22:01;;;;;;;58.87;30.83;;;;;;;;;;5046802;28;20444;-66
2022/04/13 05:24:28;;;;;;;60.97;31.80;;;;;;;;;;5043585;28;20186;-67
2022/04/13 05:26:56;;;;;;;54.50;28.87;;;;;;;;;;5039961;28;20441;-64
2022/04/13 05:29:23;;;;;;;56.33;29.43;;;;;;;;;;5039516;28;20197;-65
2022/04/13 05:31:50;;;;;;;41.17;24.27;;;;;;;;;;5041185;28;20197;-64
2022/04/13 05:34:35;;;;;;;40.07;22.80;;;;;;;;;;5044940;28;20182;-65
2022/04/13 05:37:02;;;;;;;37.73;18.77;;;;;;;;;;5047740;28;20553;-64
2022/04/13 05:39:47;;;;;;;37.67;20.20;;;;;;;;;;5041001;28;20175;-64
2022/04/13 05:42:14;;;;;;;42.33;20.83;;;;;;;;;;5031270;28;20655;-64
2022/04/13 05:44:40;;;;;;;41.33;21.50;;;;;;;;;;5027596;28;20195;-64
2022/04/13 05:47:07;;;;;;;45.97;22.97;;;;;;;;;;5027869;28;20639;-64
2022/04/13 05:49:34;;;;;;;42.67;23.40;;;;;;;;;;5028365;28;20186;-64
2022/04/13 05:52:01;;;;;;;30.80;18.10;;;;;;;;;;5025855;28;20202;-62
2022/04/13 05:54:27;;;;;;;37.43;20.47;;;;;;;;;;5027788;28;20748;-62
2022/04/13 05:56:54;;;;;;;36.77;21.27;;;;;;;;;;5027491;28;20196;-66
2022/04/13 05:59:38;;;;;;;38.80;20.13;;;;;;;;;;5020724;28;20178;-67
2022/04/13 06:02:05;;;;;;;34.67;20.33;;;;;;;;;;5039389;28;20310;-66
2022/04/13 06:04:50;;;;;;;39.63;20.37;;;;;;;;;;5041259;28;20183;-65
2022/04/13 06:07:17;;;;;;;36.03;20.80;;;;;;;;;;5040349;28;20195;-70
2022/04/13 06:09:44;;;;;;;35.93;20.83;;;;;;;;;;5038495;28;20261;-66
2022/04/13 06:12:12;;;;;;;40.20;21.77;;;;;;;;;;5038868;28;20214;-68
2022/04/13 06:14:39;;;;;;;36.77;20.00;;;;;;;;;;5041048;28;21043;-66
2022/04/13 06:17:06;;;;;;;36.10;19.80;;;;;;;;;;5026388;28;20191;-66
2022/04/13 06:19:33;;;;;;;41.57;21.27;;;;;;;;;;5037570;28;20234;-66
2022/04/13 06:22:00;;;;;;;34.00;19.83;;;;;;;;;;5039598;28;20313;-66
2022/04/13 06:24:44;;;;;;;40.40;20.00;;;;;;;;;;5039877;28;20170;-65
2022/04/13 06:27:11;;;;;;;36.43;20.50;;;;;;;;;;5038753;28;20193;-66
2022/04/13 06:29:39;;;;;;;37.40;20.20;;;;;;;;;;5022576;28;20214;-67
2022/04/13 06:32:06;;;;;;;36.43;19.77;;;;;;;;;;5036913;28;20191;-65
2022/04/13 06:34:33;;;;;;;36.87;18.57;;;;;;;;;;5040375;28;20258;-66
2022/04/13 06:37:00;;;;;;;37.23;18.40;;;;;;;;;;5038146;28;20206;-67
2022/04/13 06:39:27;;;;;;;35.57;17.07;;;;;;;;;;5039031;28;20194;-67
2022/04/13 06:41:54;;;;;;;30.60;17.17;;;;;;;;;;5038126;28;20605;-66
2022/04/13 06:44:21;;;;;;;32.47;17.13;;;;;;;;;;5040326;28;20179;-64
2022/04/13 06:46:48;;;;;;;30.57;16.53;;;;;;;;;;5040369;28;20198;-66
2022/04/13 06:49:15;;;;;;;30.70;16.23;;;;;;;;;;5040312;28;20190;-65
2022/04/13 06:51:42;;;;;;;36.83;17.33;;;;;;;;;;5041522;28;20208;-65
2022/04/13 06:54:09;;;;;;;34.47;16.77;;;;;;;;;;5042558;28;20226;-64
2022/04/13 06:56:39;;;;;;;32.47;17.40;;;;;;;;;;5042813;28;20186;-64
2022/04/13 06:59:06;;;;;;;31.23;17.13;;;;;;;;;;5044270;28;20187;-66
2022/04/13 07:01:33;;;;;;;24.17;12.40;;;;;;;;;;5043449;28;20222;-64
2022/04/13 07:04:00;;;;;;;27.07;11.97;;;;;;;;;;5041967;28;20197;-64
2022/04/13 07:06:27;;;;;;;24.17;10.10;;;;;;;;;;5042708;28;20289;-65
2022/04/13 07:09:14;;;;;;;23.57;9.97;;;;;;;;;;5043161;28;20187;-64
2022/04/13 07:11:41;;;;;;;15.57;7.47;;;;;;;;;;5042671;28;20210;-64
2022/04/13 07:14:08;;;;;;;9.10;5.37;;;;;;;;;;5041626;28;20231;-65
2022/04/13 07:16:35;;;;;;;11.87;4.80;;;;;;;;;;5038324;28;20190;-64
2022/04/13 07:19:19;;;;;;;8.17;4.20;;;;;;;;;;5041803;28;20190;-64
2022/04/13 07:21:46;;;;;;;12.07;5.07;;;;;;;;;;5043272;28;20199;-66
2022/04/13 07:24:34;;;;;;;9.83;4.20;;;;;;;;;;5041970;28;20252;-67
2022/04/13 07:27:01;;;;;;;9.13;4.57;;;;;;;;;;5041751;28;20231;-67
2022/04/13 07:29:28;;;;;;;8.57;4.10;;;;;;;;;;5041694;28;20195;-68
2022/04/13 07:31:55;;;;;;;12.50;4.47;;;;;;;;;;5042083;28;20317;-63
2022/04/13 07:34:22;;;;;;;12.23;4.93;;;;;;;;;;5043191;28;21073;-62
2022/04/13 07:36:49;;;;;;;8.30;4.00;;;;;;;;;;5040064;28;20203;-65
2022/04/13 07:39:16;;;;;;;9.13;4.57;;;;;;;;;;5041882;28;20203;-64
2022/04/13 07:41:43;;;;;;;11.87;4.90;;;;;;;;;;5042536;28;20278;-64
2022/04/13 07:44:12;;;;;;;8.10;4.13;;;;;;;;;;5039954;28;20202;-65
2022/04/13 07:46:38;;;;;;;9.03;4.70;;;;;;;;;;5042897;28;20203;-63
2022/04/13 07:49:06;;;;;;;12.47;4.90;;;;;;;;;;5043271;28;20199;-63
2022/04/13 07:51:50;;;;;;;11.57;5.13;;;;;;;;;;5042682;28;20194;-65
2022/04/13 07:54:18;;;;;;;12.23;5.17;;;;;;;;;;5042936;28;21289;-64
2022/04/13 07:57:02;;;;;;;10.03;4.67;;;;;;;;;;5041482;28;20175;-65
2022/04/13 07:59:30;;;;;;;11.43;5.20;;;;;;;;;;5040817;28;20191;-64
2022/04/13 08:01:57;;;;;;;12.30;4.97;;;;;;;;;;5042089;28;20217;-63
2022/04/13 08:04:24;;;;;;;10.57;4.77;;;;;;;;;;5039858;28;20205;-65
2022/04/13 08:06:54;;;;;;;10.67;4.87;;;;;;;;;;5041737;28;20567;-65
2022/04/13 08:09:21;;;;;;;12.03;5.07;;;;;;;;;;5042392;28;20206;-64
2022/04/13 08:11:52;;;;;;;8.37;4.60;;;;;;;;;;5042518;28;20301;-66
2022/04/13 08:14:39;;;;;;;8.73;3.97;;;;;;;;;;5041605;28;20245;-66
2022/04/13 08:17:07;;;;;;;7.17;4.20;;;;;;;;;;5041606;28;20190;-65
2022/04/13 08:19:34;;;;;;;10.47;5.00;;;;;;;;;;5041856;28;20561;-64
2022/04/13 08:22:01;;;;;;;11.23;5.27;;;;;;;;;;5040714;28;20199;-64
2022/04/13 08:24:29;;;;;;;9.27;4.80;;;;;;;;;;5041477;28;20709;-67
2022/04/13 08:26:58;;;;;;;11.60;5.13;;;;;;;;;;5038957;28;20197;-63
2022/04/13 08:29:26;;;;;;;9.07;4.53;;;;;;;;;;5040493;28;20212;-63
2022/04/13 08:31:54;;;;;;;12.30;5.50;;;;;;;;;;5038750;28;20194;-63
2022/04/13 08:34:21;;;;;;;14.40;6.03;;;;;;;;;;5040769;28;20223;-62
2022/04/13 08:36:48;;;;;;;11.77;5.63;;;;;;;;;;5039616;28;20245;-65
2022/04/13 08:39:15;;;;;;;11.00;4.87;;;;;;;;;;5039927;28;20205;-64
2022/04/13 08:41:49;;;;;;;11.07;5.13;;;;;;;;;;5040371;28;20185;-65
2022/04/13 08:44:17;;;;;;;12.10;4.60;;;;;;;;;;5040819;28;20204;-63
2022/04/13 08:46:45;;;;;;;10.87;5.70;;;;;;;;;;5040817;28;20584;-63
2022/04/13 08:49:13;;;;;;;13.07;5.93;;;;;;;;;;5040212;28;20190;-67
2022/04/13 08:52:02;;;;;;;10.27;5.63;;;;;;;;;;5040532;28;20175;-64
2022/04/13 08:54:31;;;;;;;12.77;5.83;;;;;;;;;;5039337;28;20557;-66
2022/04/13 08:56:58;;;;;;;9.70;5.53;;;;;;;;;;5038996;28;20194;-66
2022/04/13 08:59:54;;;;;;;13.90;5.60;;;;;;;;;;5037935;28;20213;-63
2022/04/13 09:02:32;;;;;;;10.80;5.47;;;;;;;;;;5040056;28;20199;-64
2022/04/13 09:04:59;;;;;;;11.00;5.70;;;;;;;;;;5039144;28;20183;-63
2022/04/13 09:07:32;;;;;;;13.50;5.67;;;;;;;;;;5040754;28;20190;-65
2022/04/13 09:10:00;;;;;;;16.43;6.00;;;;;;;;;;5037726;28;20198;-63
2022/04/13 09:12:33;;;;;;;10.27;5.50;;;;;;;;;;5041576;28;20194;-65
2022/04/13 09:15:04;;;;;;;10.53;5.47;;;;;;;;;;5040590;28;20241;-64
2022/04/13 09:17:48;;;;;;;13.67;6.97;;;;;;;;;;5040360;28;20669;-63
2022/04/13 09:20:15;;;;;;;15.87;8.30;;;;;;;;;;5041364;28;20828;-65
2022/04/13 09:22:42;;;;;;;11.93;5.80;;;;;;;;;;5040620;28;20194;-63
2022/04/13 09:25:10;;;;;;;12.67;5.80;;;;;;;;;;5042274;28;20205;-64
2022/04/13 09:27:37;;;;;;;14.50;5.77;;;;;;;;;;5039275;28;20261;-62
2022/04/13 09:30:05;;;;;;;11.23;5.47;;;;;;;;;;5044306;28;20605;-63
2022/04/13 09:32:32;;;;;;;9.03;4.40;;;;;;;;;;5046742;28;20199;-62
2022/04/13 09:35:00;;;;;;;9.90;5.00;;;;;;;;;;5042711;28;20307;-62
2022/04/13 09:37:27;;;;;;;7.33;4.23;;;;;;;;;;5040463;28;20284;-62
2022/04/13 09:39:54;;;;;;;10.43;5.27;;;;;;;;;;5047384;28;20239;-62
2022/04/13 09:42:22;;;;;;;9.37;4.23;;;;;;;;;;5046311;28;20194;-63
2022/04/13 09:45:08;;;;;;;9.53;4.73;;;;;;;;;;5019314;28;20174;-63
2022/04/13 09:47:35;;;;;;;11.73;4.90;;;;;;;;;;5047722;28;20195;-63
2022/04/13 09:50:02;;;;;;;7.67;4.43;;;;;;;;;;5047443;28;20741;-63
2022/04/13 09:52:35;;;;;;;9.93;4.80;;;;;;;;;;5048515;28;20193;-62
2022/04/13 09:55:03;;;;;;;12.90;4.83;;;;;;;;;;5047138;28;20218;-63
2022/04/13 09:57:30;;;;;;;8.53;5.03;;;;;;;;;;5045908;28;20281;-62
2022/04/13 09:59:58;;;;;;;9.73;4.80;;;;;;;;;;5048407;28;20206;-63
2022/04/13 10:02:43;;;;;;;10.57;4.50;;;;;;;;;;5047857;28;20216;-62
2022/04/13 10:05:20;;;;;;;9.93;5.03;;;;;;;;;;5046991;28;20649;-62
2022/04/13 10:08:02;;;;;;;10.67;4.83;;;;;;;;;;5046098;28;20660;-63
2022/04/13 10:10:29;;;;;;;9.00;4.60;;;;;;;;;;5046621;28;20188;-64
2022/04/13 10:12:56;;;;;;;8.17;5.00;;;;;;;;;;5028353;28;20298;-63
2022/04/13 10:15:23;;;;;;;7.43;4.33;;;;;;;;;;5042572;28;20219;-67
2022/04/13 10:17:50;;;;;;;10.20;4.70;;;;;;;;;;5037730;28;20275;-65
2022/04/13 10:20:17;;;;;;;6.73;4.00;;;;;;;;;;5043686;28;20221;-64
2022/04/13 10:23:00;;;;;;;7.73;4.40;;;;;;;;;;5043410;28;20215;-63
2022/04/13 10:25:27;;;;;;;9.27;4.33;;;;;;;;;;5040431;28;20895;-65
2022/04/13 10:27:55;;;;;;;9.63;4.07;;;;;;;;;;5037754;28;20274;-64
2022/04/13 10:30:29;;;;;;;9.00;4.50;;;;;;;;;;5042508;28;20256;-64
2022/04/13 10:33:14;;;;;;;9.73;4.60;;;;;;;;;;5041196;28;20187;-63
2022/04/13 10:35:42;;;;;;;11.13;5.63;;;;;;;;;;5039058;28;20296;-63
2022/04/13 10:38:09;;;;;;;8.30;5.03;;;;;;;;;;5042197;28;20223;-63
2022/04/13 10:40:40;;;;;;;9.97;4.70;;;;;;;;;;5044863;28;20293;-63
2022/04/13 10:43:08;;;;;;;10.20;5.20;;;;;;;;;;5042927;28;20191;-63
2022/04/13 10:45:37;;;;;;;10.57;4.30;;;;;;;;;;5044132;28;20281;-64
2022/04/13 10:48:05;;;;;;;7.10;4.70;;;;;;;;;;5041754;28;20283;-62
2022/04/13 10:50:41;;;;;;;7.70;4.70;;;;;;;;;;5044564;28;20264;-63
2022/04/13 10:53:25;;;;;;;8.23;4.90;;;;;;;;;;5043706;28;20908;-63
2022/04/13 10:55:58;;;;;;;10.40;4.77;;;;;;;;;;5044073;28;20198;-62
2022/04/13 10:58:35;;;;;;;14.13;4.83;;;;;;;;;;5041595;28;20257;-62
2022/04/13 11:01:03;;;;;;;10.47;4.40;;;;;;;;;;5043185;28;20198;-63
2022/04/13 11:03:47;;;;;;;8.20;4.33;;;;;;;;;;5039859;28;20265;-62
2022/04/13 11:06:14;;;;;;;6.83;4.17;;;;;;;;;;5041159;28;20229;-65
2022/04/13 11:08:46;;;;;;;7.43;4.37;;;;;;;;;;5042879;28;20289;-64
2022/04/13 11:11:22;;;;;;;10.03;4.60;;;;;;;;;;5044214;28;20253;-63
2022/04/13 11:13:49;;;;;;;9.77;4.47;;;;;;;;;;5042259;28;20815;-66
2022/04/13 11:16:19;;;;;;;10.47;4.47;;;;;;;;;;5043194;28;20199;-63
2022/04/13 11:19:03;;;;;;;7.87;4.33;;;;;;;;;;5042350;28;20194;-63
2022/04/13 11:21:49;;;;;;;9.30;4.40;;;;;;;;;;5042755;28;20178;-63
2022/04/13 11:24:37;;;;;;;8.10;4.30;;;;;;;;;;5041368;28;20677;-64
2022/04/13 11:27:04;;;;;;;7.70;4.20;;;;;;;;;;5042202;28;20213;-65
2022/04/13 11:29:39;;;;;;;8.00;4.23;;;;;;;;;;5042220;28;20198;-63
2022/04/13 11:32:10;;;;;;;7.87;4.80;;;;;;;;;;5037424;28;20657;-61
2022/04/13 11:34:38;;;;;;;7.73;5.20;;;;;;;;;;5043195;28;20271;-64
2022/04/13 11:37:07;;;;;;;9.00;5.50;;;;;;;;;;5041772;28;20183;-65
2022/04/13 11:39:47;;;;;;;11.20;6.43;;;;;;;;;;5023989;28;20229;-65
2022/04/13 11:42:26;;;;;;;10.27;6.00;;;;;;;;;;5042879;28;20187;-66
2022/04/13 11:44:59;;;;;;;10.63;6.20;;;;;;;;;;5042244;28;20204;-65
2022/04/13 11:47:45;;;;;;;11.67;6.70;;;;;;;;;;5043224;28;21117;-64
2022/04/13 11:50:14;;;;;;;13.50;6.60;;;;;;;;;;5041289;28;20241;-65
2022/04/13 11:52:42;;;;;;;12.73;7.47;;;;;;;;;;5041812;28;20264;-66
2022/04/13 11:55:24;;;;;;;9.13;7.33;;;;;;;;;;5035432;28;20302;-64
2022/04/13 11:58:09;;;;;;;11.27;7.43;;;;;;;;;;5040202;28;20199;-64
2022/04/13 12:00:52;;;;;;;11.47;8.40;;;;;;;;;;5040652;28;20274;-63
2022/04/13 12:03:20;;;;;;;11.97;7.47;;;;;;;;;;5041960;28;20195;-62
2022/04/13 12:05:52;;;;;;;11.73;8.23;;;;;;;;;;5041240;28;20190;-63
2022/04/13 12:08:20;;;;;;;10.73;8.00;;;;;;;;;;5041185;28;20298;-63
2022/04/13 12:10:47;;;;;;;14.60;7.97;;;;;;;;;;5042281;28;20211;-64
2022/04/13 12:13:14;;;;;;;12.37;8.00;;;;;;;;;;5041698;28;20270;-65
2022/04/13 12:15:41;;;;;;;11.33;6.93;;;;;;;;;;5041265;28;21482;-64
2022/04/13 12:18:11;;;;;;;9.80;6.80;;;;;;;;;;5041979;28;20238;-63
2022/04/13 12:20:38;;;;;;;10.40;7.20;;;;;;;;;;5042158;28;20226;-64
2022/04/13 12:23:27;;;;;;;10.70;6.87;;;;;;;;;;5041577;28;20190;-63
2022/04/13 12:25:55;;;;;;;16.70;6.90;;;;;;;;;;5040196;28;20321;-64
2022/04/13 12:28:40;;;;;;;10.43;5.40;;;;;;;;;;5042040;28;20529;-62
2022/04/13 12:31:08;;;;;;;9.67;5.17;;;;;;;;;;5041169;28;20191;-64
2022/04/13 12:33:36;;;;;;;9.57;4.87;;;;;;;;;;5040673;28;20666;-65
2022/04/13 12:36:04;;;;;;;8.63;5.17;;;;;;;;;;5042241;28;20577;-65
2022/04/13 12:38:33;;;;;;;8.97;4.57;;;;;;;;;;5029869;28;20230;-65
2022/04/13 12:41:00;;;;;;;8.43;4.77;;;;;;;;;;5040290;28;20215;-65
2022/04/13 12:43:27;;;;;;;11.87;4.80;;;;;;;;;;5042572;28;20598;-64
2022/04/13 12:45:54;;;;;;;10.67;5.40;;;;;;;;;;5042841;28;20649;-64
2022/04/13 12:48:25;;;;;;;10.63;4.80;;;;;;;;;;5040822;28;20321;-65
2022/04/13 12:50:55;;;;;;;9.23;5.40;;;;;;;;;;5040001;28;20206;-63
2022/04/13 12:53:22;;;;;;;9.83;4.90;;;;;;;;;;5041588;28;20194;-64
2022/04/13 12:55:52;;;;;;;8.57;5.33;;;;;;;;;;5040203;28;20222;-64
2022/04/13 12:58:19;;;;;;;9.27;5.63;;;;;;;;;;5040440;28;20309;-64
2022/04/13 13:01:04;;;;;;;10.70;5.90;;;;;;;;;;5041513;28;20167;-64
2022/04/13 13:03:32;;;;;;;9.53;5.87;;;;;;;;;;5040815;28;20202;-63
2022/04/13 13:06:06;;;;;;;10.00;5.57;;;;;;;;;;5040660;28;20306;-64
2022/04/13 13:08:33;;;;;;;10.23;5.33;;;;;;;;;;5040637;28;20222;-64
2022/04/13 13:11:18;;;;;;;9.30;4.70;;;;;;;;;;5040956;28;20727;-63
2022/04/13 13:13:44;;;;;;;7.37;4.20;;;;;;;;;;5041277;28;20321;-65
2022/04/13 13:16:32;;;;;;;8.43;5.20;;;;;;;;;;5039539;28;20225;-67
2022/04/13 13:19:09;;;;;;;10.67;5.43;;;;;;;;;;5040777;28;20318;-65
2022/04/13 13:22:12;;;;;;;7.43;5.10;;;;;;;;;;5041747;28;20293;-63
2022/04/13 13:24:45;;;;;;;11.93;5.50;;;;;;;;;;5039323;28;20844;-65
2022/04/13 13:27:39;;;;;;;10.07;5.30;;;;;;;;;;5040713;28;20194;-64
2022/04/13 13:30:09;;;;;;;9.53;5.57;;;;;;;;;;5040420;28;20573;-64
2022/04/13 13:32:56;;;;;;;7.53;5.07;;;;;;;;;;5040377;28;20225;-63
2022/04/13 13:35:27;;;;;;;8.17;5.00;;;;;;;;;;5039201;28;20233;-63
2022/04/13 13:37:54;;;;;;;10.47;5.40;;;;;;;;;;5041246;28;20714;-64
2022/04/13 13:40:40;;;;;;;9.07;5.30;;;;;;;;;;5040405;28;20211;-63
2022/04/13 13:43:11;;;;;;;9.47;4.90;;;;;;;;;;5041156;28;20226;-63
2022/04/13 13:45:39;;;;;;;8.37;4.30;;;;;;;;;;5040369;28;20585;-64
2022/04/13 13:48:07;;;;;;;8.67;4.70;;;;;;;;;;5041101;28;20226;-64
2022/04/13 13:50:34;;;;;;;7.87;5.23;;;;;;;;;;5041151;28;20902;-63
2022/04/13 13:53:01;;;;;;;10.53;5.00;;;;;;;;;;5046435;28;20607;-63
2022/04/13 13:55:29;;;;;;;10.63;5.57;;;;;;;;;;5039551;28;20257;-63
2022/04/13 13:57:56;;;;;;;9.00;5.10;;;;;;;;;;5028099;28;20275;-63
2022/04/13 14:00:24;;;;;;;9.03;5.53;;;;;;;;;;5027623;28;20257;-64
2022/04/13 14:02:53;;;;;;;7.70;4.80;;;;;;;;;;5031503;28;20647;-65
2022/04/13 14:05:24;;;;;;;7.10;5.20;;;;;;;;;;5031895;28;20616;-65
2022/04/13 14:07:52;;;;;;;6.80;4.53;;;;;;;;;;5031873;28;20203;-65
2022/04/13 14:10:22;;;;;;;8.27;5.23;;;;;;;;;;5043114;28;20301;-65
2022/04/13 14:12:49;;;;;;;10.60;5.27;;;;;;;;;;5050486;28;20198;-65
2022/04/13 14:15:16;;;;;;;9.47;5.40;;;;;;;;;;5051480;28;20234;-64
2022/04/13 14:17:43;;;;;;;6.87;4.83;;;;;;;;;;5051357;28;20197;-63
2022/04/13 14:20:12;;;;;;;10.80;4.80;;;;;;;;;;5048765;28;20205;-64
2022/04/13 14:22:40;;;;;;;9.80;4.47;;;;;;;;;;5042359;28;20899;-64
2022/04/13 14:25:07;;;;;;;9.60;4.83;;;;;;;;;;5049471;28;20199;-63
2022/04/13 14:27:34;;;;;;;9.83;4.60;;;;;;;;;;5044938;28;20191;-63
2022/04/13 14:30:02;;;;;;;9.97;4.63;;;;;;;;;;5031649;28;20238;-63
2022/04/13 14:32:29;;;;;;;7.13;4.53;;;;;;;;;;5028040;28;20273;-64
2022/04/13 14:34:56;;;;;;;6.63;4.40;;;;;;;;;;5041892;28;20210;-64
2022/04/13 14:37:23;;;;;;;6.87;4.30;;;;;;;;;;5042498;28;20212;-63
2022/04/13 14:39:50;;;;;;;7.13;4.67;;;;;;;;;;5041079;28;20198;-65
2022/04/13 14:42:19;;;;;;;8.93;5.10;;;;;;;;;;5043602;28;20305;-64
2022/04/13 14:44:46;;;;;;;8.17;4.70;;;;;;;;;;5043438;28;20197;-63